MET'MAP v2.0
soon released !

Expected late october,
this new version will be
more efficient, smarter,
and hosted on a brand new
server x3 powerfull...
...and still free !


Not compatible ?
Try the mobile version !

LOG IN : | Subscribe | Disclaimer | Who is Orbifly ? |
ICAO code :
Legend : VFR Marginal VFR IFR Intensive IFR Very Intensive IFR
Visi :
Ceiling :
>= 8 km
>= 3000ft
5 to 8 km
1000 to 3000 ft
1500m to 5 km
500 to 1000 ft
800 to 1500m
200 to 500 ft
< 800m
< 200 ft

METAR - LZZI Žilina Airport - 29 Sep 2020 16:41 UTC - Data Source NOAA   


- Airport Elevation : 1020 ft
- IATA code : ILZ
- No reported NOTAMs.


LZZI - Žilina Airport

Latest METAR recorded : 2015/08/11 08:00 LZZI 110800Z VRB02KT CAVOK 27/19 Q1016
TAF TAF LZZI
Valid from the 29 at 15:00 until the 30 at 00:00 UTC


291400Z 2915/3000 24008KT 9999 SCT020 BKN040
BECMG 2919/2921 VRB02KT 2500 BR BKN004
TEMPO 2921/3000 1200 -RA BR BKN002

Source NOAA


MET'MAP, your aeronautical weather chart ! - Copyright ORBIFLY December 2007

Programming & Development : Alexandra Zaïnal
Co-Developer : Marc-Olivier Méhu
Technical & hardware support : Manuel Goepfert
Concept & Financing : Baudouin d'Aumeries